sensor_id;sensor_type;location;lat;lon;timestamp;temperature;humidity
18103;DHT22;9178;51.120;6.192;2023-09-19T00:00:07;14.50;99.90
18103;DHT22;9178;51.120;6.192;2023-09-19T00:02:35;14.50;99.90
18103;DHT22;9178;51.120;6.192;2023-09-19T00:05:05;14.50;99.90
18103;DHT22;9178;51.120;6.192;2023-09-19T00:07:33;14.40;99.90
18103;DHT22;9178;51.120;6.192;2023-09-19T00:10:02;14.40;99.90
18103;DHT22;9178;51.120;6.192;2023-09-19T00:12:33;14.40;99.90
18103;DHT22;9178;51.120;6.192;2023-09-19T00:15:00;14.30;99.90
18103;DHT22;9178;51.120;6.192;2023-09-19T00:17:41;14.40;99.90
18103;DHT22;9178;51.120;6.192;2023-09-19T00:20:10;14.30;99.90
18103;DHT22;9178;51.120;6.192;2023-09-19T00:22:39;14.40;99.90
18103;DHT22;9178;51.120;6.192;2023-09-19T00:25:07;14.40;99.90
18103;DHT22;9178;51.120;6.192;2023-09-19T00:27:35;14.30;99.90
18103;DHT22;9178;51.120;6.192;2023-09-19T00:30:06;14.30;99.90
18103;DHT22;9178;51.120;6.192;2023-09-19T00:32:34;14.30;99.90
18103;DHT22;9178;51.120;6.192;2023-09-19T00:35:05;14.30;99.90
18103;DHT22;9178;51.120;6.192;2023-09-19T00:37:33;14.30;99.90
18103;DHT22;9178;51.120;6.192;2023-09-19T00:40:00;14.20;99.90
18103;DHT22;9178;51.120;6.192;2023-09-19T00:42:28;14.20;99.90
18103;DHT22;9178;51.120;6.192;2023-09-19T00:44:55;14.20;99.90
18103;DHT22;9178;51.120;6.192;2023-09-19T00:47:22;14.20;99.90
18103;DHT22;9178;51.120;6.192;2023-09-19T00:49:51;14.20;99.90
18103;DHT22;9178;51.120;6.192;2023-09-19T00:52:20;14.20;99.90
18103;DHT22;9178;51.120;6.192;2023-09-19T00:54:48;14.20;99.90
18103;DHT22;9178;51.120;6.192;2023-09-19T00:57:15;14.20;99.90
18103;DHT22;9178;51.120;6.192;2023-09-19T00:59:45;14.20;99.90
18103;DHT22;9178;51.120;6.192;2023-09-19T01:02:15;14.20;99.90
18103;DHT22;9178;51.120;6.192;2023-09-19T01:04:46;14.20;99.90
18103;DHT22;9178;51.120;6.192;2023-09-19T01:07:13;14.20;99.90
18103;DHT22;9178;51.120;6.192;2023-09-19T01:09:44;14.10;99.90
18103;DHT22;9178;51.120;6.192;2023-09-19T01:12:15;14.10;99.90
18103;DHT22;9178;51.120;6.192;2023-09-19T01:14:49;14.10;99.90
18103;DHT22;9178;51.120;6.192;2023-09-19T01:17:27;14.10;99.90
18103;DHT22;9178;51.120;6.192;2023-09-19T01:20:15;14.20;99.90
18103;DHT22;9178;51.120;6.192;2023-09-19T01:22:53;14.10;99.90
18103;DHT22;9178;51.120;6.192;2023-09-19T01:26:03;14.20;99.90
18103;DHT22;9178;51.120;6.192;2023-09-19T01:28:43;14.20;99.90
18103;DHT22;9178;51.120;6.192;2023-09-19T01:31:15;14.20;99.90
18103;DHT22;9178;51.120;6.192;2023-09-19T01:33:59;14.20;99.90
18103;DHT22;9178;51.120;6.192;2023-09-19T01:36:32;14.20;99.90
18103;DHT22;9178;51.120;6.192;2023-09-19T01:39:02;14.20;99.90
18103;DHT22;9178;51.120;6.192;2023-09-19T01:41:45;14.20;99.90
18103;DHT22;9178;51.120;6.192;2023-09-19T01:44:28;14.20;99.90
18103;DHT22;9178;51.120;6.192;2023-09-19T01:47:01;14.20;99.90
18103;DHT22;9178;51.120;6.192;2023-09-19T01:49:36;14.20;99.90
18103;DHT22;9178;51.120;6.192;2023-09-19T01:52:09;14.20;99.90
18103;DHT22;9178;51.120;6.192;2023-09-19T01:54:50;14.20;99.90
18103;DHT22;9178;51.120;6.192;2023-09-19T01:57:22;14.20;99.90
18103;DHT22;9178;51.120;6.192;2023-09-19T01:59:59;14.20;99.90
18103;DHT22;9178;51.120;6.192;2023-09-19T02:02:34;14.10;99.90
18103;DHT22;9178;51.120;6.192;2023-09-19T02:05:01;14.10;99.90
18103;DHT22;9178;51.120;6.192;2023-09-19T02:07:29;14.10;99.90
18103;DHT22;9178;51.120;6.192;2023-09-19T02:09:57;14.00;99.90
18103;DHT22;9178;51.120;6.192;2023-09-19T02:12:25;14.00;99.90
18103;DHT22;9178;51.120;6.192;2023-09-19T02:14:53;14.10;99.90
18103;DHT22;9178;51.120;6.192;2023-09-19T02:17:21;14.10;99.90
18103;DHT22;9178;51.120;6.192;2023-09-19T02:19:54;14.00;99.90
18103;DHT22;9178;51.120;6.192;2023-09-19T02:22:22;14.00;99.90
18103;DHT22;9178;51.120;6.192;2023-09-19T02:24:50;14.00;99.90
18103;DHT22;9178;51.120;6.192;2023-09-19T02:27:20;14.00;99.90
18103;DHT22;9178;51.120;6.192;2023-09-19T02:29:47;14.00;99.90
18103;DHT22;9178;51.120;6.192;2023-09-19T02:32:15;14.00;99.90
18103;DHT22;9178;51.120;6.192;2023-09-19T02:34:44;13.90;99.90
18103;DHT22;9178;51.120;6.192;2023-09-19T02:37:12;13.90;99.90
18103;DHT22;9178;51.120;6.192;2023-09-19T02:39:42;13.90;99.90
18103;DHT22;9178;51.120;6.192;2023-09-19T02:42:09;13.90;99.90
18103;DHT22;9178;51.120;6.192;2023-09-19T02:44:36;13.90;99.90
18103;DHT22;9178;51.120;6.192;2023-09-19T02:47:04;13.80;99.90
18103;DHT22;9178;51.120;6.192;2023-09-19T02:49:31;13.90;99.90
18103;DHT22;9178;51.120;6.192;2023-09-19T02:51:58;13.80;99.90
18103;DHT22;9178;51.120;6.192;2023-09-19T02:54:27;13.80;99.90
18103;DHT22;9178;51.120;6.192;2023-09-19T02:56:54;13.80;99.90
18103;DHT22;9178;51.120;6.192;2023-09-19T02:59:21;13.70;99.90
18103;DHT22;9178;51.120;6.192;2023-09-19T03:01:50;13.70;99.90
18103;DHT22;9178;51.120;6.192;2023-09-19T03:04:19;13.70;99.90
18103;DHT22;9178;51.120;6.192;2023-09-19T03:06:47;13.70;99.90
18103;DHT22;9178;51.120;6.192;2023-09-19T03:09:16;13.70;99.90
18103;DHT22;9178;51.120;6.192;2023-09-19T03:11:46;13.70;99.90
18103;DHT22;9178;51.120;6.192;2023-09-19T03:14:13;13.70;99.90
18103;DHT22;9178;51.120;6.192;2023-09-19T03:16:41;13.60;99.90
18103;DHT22;9178;51.120;6.192;2023-09-19T03:19:10;13.70;99.90
18103;DHT22;9178;51.120;6.192;2023-09-19T03:21:37;13.60;99.90
18103;DHT22;9178;51.120;6.192;2023-09-19T03:24:06;13.70;99.90
18103;DHT22;9178;51.120;6.192;2023-09-19T03:26:33;13.60;99.90
18103;DHT22;9178;51.120;6.192;2023-09-19T03:29:04;13.60;99.90
18103;DHT22;9178;51.120;6.192;2023-09-19T03:31:33;13.60;99.90
18103;DHT22;9178;51.120;6.192;2023-09-19T03:34:02;13.70;99.90
18103;DHT22;9178;51.120;6.192;2023-09-19T03:36:30;13.60;99.90
18103;DHT22;9178;51.120;6.192;2023-09-19T03:38:57;13.60;99.90
18103;DHT22;9178;51.120;6.192;2023-09-19T03:41:24;13.70;99.90
18103;DHT22;9178;51.120;6.192;2023-09-19T03:43:51;13.60;99.90
18103;DHT22;9178;51.120;6.192;2023-09-19T03:46:20;13.60;99.90
18103;DHT22;9178;51.120;6.192;2023-09-19T03:48:47;13.60;99.90
18103;DHT22;9178;51.120;6.192;2023-09-19T03:51:14;13.70;99.90
18103;DHT22;9178;51.120;6.192;2023-09-19T03:53:41;13.60;99.90
18103;DHT22;9178;51.120;6.192;2023-09-19T03:56:08;13.60;99.90
18103;DHT22;9178;51.120;6.192;2023-09-19T03:58:36;13.60;99.90
18103;DHT22;9178;51.120;6.192;2023-09-19T04:01:05;13.60;99.90
18103;DHT22;9178;51.120;6.192;2023-09-19T04:03:33;13.60;99.90
18103;DHT22;9178;51.120;6.192;2023-09-19T04:06:11;13.60;99.90
18103;DHT22;9178;51.120;6.192;2023-09-19T04:08:38;13.50;99.90
18103;DHT22;9178;51.120;6.192;2023-09-19T04:11:06;13.60;99.90
18103;DHT22;9178;51.120;6.192;2023-09-19T04:13:33;13.50;99.90
18103;DHT22;9178;51.120;6.192;2023-09-19T04:16:00;13.50;99.90
18103;DHT22;9178;51.120;6.192;2023-09-19T04:18:27;13.60;99.90
18103;DHT22;9178;51.120;6.192;2023-09-19T04:20:58;13.50;99.90
18103;DHT22;9178;51.120;6.192;2023-09-19T04:23:25;13.50;99.90
18103;DHT22;9178;51.120;6.192;2023-09-19T04:25:52;13.60;99.90
18103;DHT22;9178;51.120;6.192;2023-09-19T04:28:19;13.50;99.90
18103;DHT22;9178;51.120;6.192;2023-09-19T04:30:46;13.50;99.90
18103;DHT22;9178;51.120;6.192;2023-09-19T04:33:13;13.50;99.90
18103;DHT22;9178;51.120;6.192;2023-09-19T04:35:49;13.50;99.90
18103;DHT22;9178;51.120;6.192;2023-09-19T04:38:17;13.50;99.90
18103;DHT22;9178;51.120;6.192;2023-09-19T04:40:44;13.50;99.90
18103;DHT22;9178;51.120;6.192;2023-09-19T04:43:11;13.50;99.90
18103;DHT22;9178;51.120;6.192;2023-09-19T04:45:39;13.50;99.90
18103;DHT22;9178;51.120;6.192;2023-09-19T04:48:08;13.50;99.90
18103;DHT22;9178;51.120;6.192;2023-09-19T04:50:36;13.60;99.90
18103;DHT22;9178;51.120;6.192;2023-09-19T04:53:04;13.60;99.90
18103;DHT22;9178;51.120;6.192;2023-09-19T04:55:34;13.70;99.90
18103;DHT22;9178;51.120;6.192;2023-09-19T04:58:05;13.70;99.90
18103;DHT22;9178;51.120;6.192;2023-09-19T05:00:32;13.70;99.90
18103;DHT22;9178;51.120;6.192;2023-09-19T05:03:01;13.70;99.90
18103;DHT22;9178;51.120;6.192;2023-09-19T05:05:30;13.70;99.90
18103;DHT22;9178;51.120;6.192;2023-09-19T05:07:57;13.70;99.90
18103;DHT22;9178;51.120;6.192;2023-09-19T05:10:27;13.70;99.90
18103;DHT22;9178;51.120;6.192;2023-09-19T05:12:57;13.70;99.90
18103;DHT22;9178;51.120;6.192;2023-09-19T05:15:24;13.70;99.90
18103;DHT22;9178;51.120;6.192;2023-09-19T05:17:52;13.80;99.90
18103;DHT22;9178;51.120;6.192;2023-09-19T05:20:21;13.80;99.90
18103;DHT22;9178;51.120;6.192;2023-09-19T05:22:58;13.80;99.90
18103;DHT22;9178;51.120;6.192;2023-09-19T05:25:27;13.80;99.90
18103;DHT22;9178;51.120;6.192;2023-09-19T05:27:57;13.80;99.90
18103;DHT22;9178;51.120;6.192;2023-09-19T05:30:24;13.80;99.90
18103;DHT22;9178;51.120;6.192;2023-09-19T05:32:53;13.80;99.90
18103;DHT22;9178;51.120;6.192;2023-09-19T05:35:20;13.80;99.90
18103;DHT22;9178;51.120;6.192;2023-09-19T05:37:49;13.90;99.90
18103;DHT22;9178;51.120;6.192;2023-09-19T05:40:17;13.90;99.90
18103;DHT22;9178;51.120;6.192;2023-09-19T05:42:44;13.90;99.90
18103;DHT22;9178;51.120;6.192;2023-09-19T05:45:13;13.90;99.90
18103;DHT22;9178;51.120;6.192;2023-09-19T05:47:44;13.90;99.90
18103;DHT22;9178;51.120;6.192;2023-09-19T05:50:12;13.90;99.90
18103;DHT22;9178;51.120;6.192;2023-09-19T05:52:40;14.00;99.90
18103;DHT22;9178;51.120;6.192;2023-09-19T05:55:09;14.00;99.90
18103;DHT22;9178;51.120;6.192;2023-09-19T05:57:36;14.00;99.90
18103;DHT22;9178;51.120;6.192;2023-09-19T06:00:05;14.00;99.90
18103;DHT22;9178;51.120;6.192;2023-09-19T06:02:36;14.00;99.90
18103;DHT22;9178;51.120;6.192;2023-09-19T06:05:04;14.10;99.90
18103;DHT22;9178;51.120;6.192;2023-09-19T06:07:35;14.10;99.90
18103;DHT22;9178;51.120;6.192;2023-09-19T06:10:03;14.10;99.90
18103;DHT22;9178;51.120;6.192;2023-09-19T06:12:32;14.10;99.90
18103;DHT22;9178;51.120;6.192;2023-09-19T06:15:03;14.10;99.90
18103;DHT22;9178;51.120;6.192;2023-09-19T06:17:31;14.10;99.90
18103;DHT22;9178;51.120;6.192;2023-09-19T06:19:59;14.20;99.90
18103;DHT22;9178;51.120;6.192;2023-09-19T06:22:26;14.10;99.90
18103;DHT22;9178;51.120;6.192;2023-09-19T06:24:53;14.20;99.90
18103;DHT22;9178;51.120;6.192;2023-09-19T06:27:19;14.20;99.90
18103;DHT22;9178;51.120;6.192;2023-09-19T06:29:47;14.20;99.90
18103;DHT22;9178;51.120;6.192;2023-09-19T06:32:14;14.20;99.90
18103;DHT22;9178;51.120;6.192;2023-09-19T06:34:41;14.30;99.90
18103;DHT22;9178;51.120;6.192;2023-09-19T06:37:10;14.30;99.90
18103;DHT22;9178;51.120;6.192;2023-09-19T06:39:37;14.30;99.90
18103;DHT22;9178;51.120;6.192;2023-09-19T06:42:04;14.30;99.90
18103;DHT22;9178;51.120;6.192;2023-09-19T06:44:31;14.40;99.90
18103;DHT22;9178;51.120;6.192;2023-09-19T06:46:58;14.40;99.90
18103;DHT22;9178;51.120;6.192;2023-09-19T06:49:25;14.40;99.90
18103;DHT22;9178;51.120;6.192;2023-09-19T06:51:54;14.40;99.90
18103;DHT22;9178;51.120;6.192;2023-09-19T06:54:24;14.50;99.90
18103;DHT22;9178;51.120;6.192;2023-09-19T06:56:52;14.50;99.90
18103;DHT22;9178;51.120;6.192;2023-09-19T06:59:20;14.50;99.90
18103;DHT22;9178;51.120;6.192;2023-09-19T07:01:47;14.60;99.90
18103;DHT22;9178;51.120;6.192;2023-09-19T07:04:16;14.60;99.90
18103;DHT22;9178;51.120;6.192;2023-09-19T07:06:49;14.70;99.90
18103;DHT22;9178;51.120;6.192;2023-09-19T07:09:17;14.70;99.90
18103;DHT22;9178;51.120;6.192;2023-09-19T07:11:46;14.70;99.90
18103;DHT22;9178;51.120;6.192;2023-09-19T07:14:16;14.80;99.90
18103;DHT22;9178;51.120;6.192;2023-09-19T07:16:43;14.90;99.90
18103;DHT22;9178;51.120;6.192;2023-09-19T07:19:13;15.00;99.90
18103;DHT22;9178;51.120;6.192;2023-09-19T07:21:41;15.10;99.90
18103;DHT22;9178;51.120;6.192;2023-09-19T07:24:08;15.20;99.90
18103;DHT22;9178;51.120;6.192;2023-09-19T07:26:38;15.40;99.90
18103;DHT22;9178;51.120;6.192;2023-09-19T07:29:07;15.50;99.90
18103;DHT22;9178;51.120;6.192;2023-09-19T07:31:34;15.60;99.90
18103;DHT22;9178;51.120;6.192;2023-09-19T07:34:01;15.70;99.90
18103;DHT22;9178;51.120;6.192;2023-09-19T07:36:32;15.80;99.90
18103;DHT22;9178;51.120;6.192;2023-09-19T07:39:03;15.80;99.90
18103;DHT22;9178;51.120;6.192;2023-09-19T07:41:32;15.90;99.90
18103;DHT22;9178;51.120;6.192;2023-09-19T07:43:59;16.00;99.90
18103;DHT22;9178;51.120;6.192;2023-09-19T07:46:35;16.00;99.90
18103;DHT22;9178;51.120;6.192;2023-09-19T07:49:02;16.00;99.90
18103;DHT22;9178;51.120;6.192;2023-09-19T07:51:31;16.00;99.90
18103;DHT22;9178;51.120;6.192;2023-09-19T07:53:59;16.00;99.90
18103;DHT22;9178;51.120;6.192;2023-09-19T07:56:27;16.00;99.90
18103;DHT22;9178;51.120;6.192;2023-09-19T07:58:54;16.00;99.90
18103;DHT22;9178;51.120;6.192;2023-09-19T08:01:27;16.10;99.90
18103;DHT22;9178;51.120;6.192;2023-09-19T08:03:55;16.10;99.90
18103;DHT22;9178;51.120;6.192;2023-09-19T08:06:22;16.10;99.90
18103;DHT22;9178;51.120;6.192;2023-09-19T08:08:51;16.10;99.90
18103;DHT22;9178;51.120;6.192;2023-09-19T08:11:19;16.20;99.90
18103;DHT22;9178;51.120;6.192;2023-09-19T08:13:47;16.20;99.90
18103;DHT22;9178;51.120;6.192;2023-09-19T08:16:15;16.20;99.90
18103;DHT22;9178;51.120;6.192;2023-09-19T08:18:47;16.20;99.90
18103;DHT22;9178;51.120;6.192;2023-09-19T08:21:20;16.20;99.90
18103;DHT22;9178;51.120;6.192;2023-09-19T08:23:47;16.20;99.90
18103;DHT22;9178;51.120;6.192;2023-09-19T08:26:14;16.20;99.90
18103;DHT22;9178;51.120;6.192;2023-09-19T08:28:41;16.30;99.90
18103;DHT22;9178;51.120;6.192;2023-09-19T08:31:08;16.30;99.90
18103;DHT22;9178;51.120;6.192;2023-09-19T08:33:36;16.40;99.90
18103;DHT22;9178;51.120;6.192;2023-09-19T08:36:07;16.40;99.90
18103;DHT22;9178;51.120;6.192;2023-09-19T08:38:35;16.50;99.90
18103;DHT22;9178;51.120;6.192;2023-09-19T08:41:06;16.60;99.90
18103;DHT22;9178;51.120;6.192;2023-09-19T08:43:41;16.60;99.90
18103;DHT22;9178;51.120;6.192;2023-09-19T08:46:11;16.60;99.90
18103;DHT22;9178;51.120;6.192;2023-09-19T08:48:44;16.60;99.90
18103;DHT22;9178;51.120;6.192;2023-09-19T08:51:18;16.60;99.90
18103;DHT22;9178;51.120;6.192;2023-09-19T08:53:51;16.60;99.90
18103;DHT22;9178;51.120;6.192;2023-09-19T08:56:19;16.60;99.90
18103;DHT22;9178;51.120;6.192;2023-09-19T08:58:50;16.70;99.90
18103;DHT22;9178;51.120;6.192;2023-09-19T09:01:20;16.80;99.90
18103;DHT22;9178;51.120;6.192;2023-09-19T09:03:51;16.90;99.90
18103;DHT22;9178;51.120;6.192;2023-09-19T09:06:21;16.90;99.90
18103;DHT22;9178;51.120;6.192;2023-09-19T09:08:50;16.90;99.90
18103;DHT22;9178;51.120;6.192;2023-09-19T09:11:18;17.00;99.90
18103;DHT22;9178;51.120;6.192;2023-09-19T09:13:45;17.00;99.90
18103;DHT22;9178;51.120;6.192;2023-09-19T09:16:12;17.00;99.90
18103;DHT22;9178;51.120;6.192;2023-09-19T09:18:43;17.00;99.90
18103;DHT22;9178;51.120;6.192;2023-09-19T09:21:13;17.00;99.90
18103;DHT22;9178;51.120;6.192;2023-09-19T09:23:42;17.10;99.90
18103;DHT22;9178;51.120;6.192;2023-09-19T09:26:10;17.10;99.90
18103;DHT22;9178;51.120;6.192;2023-09-19T09:28:44;17.10;99.90
18103;DHT22;9178;51.120;6.192;2023-09-19T09:31:22;17.20;99.90
18103;DHT22;9178;51.120;6.192;2023-09-19T09:33:54;17.20;99.90
18103;DHT22;9178;51.120;6.192;2023-09-19T09:36:34;17.20;99.90
18103;DHT22;9178;51.120;6.192;2023-09-19T09:39:04;17.20;99.90
18103;DHT22;9178;51.120;6.192;2023-09-19T09:41:44;17.30;99.90
18103;DHT22;9178;51.120;6.192;2023-09-19T09:44:15;17.30;99.90
18103;DHT22;9178;51.120;6.192;2023-09-19T09:46:43;17.40;99.90
18103;DHT22;9178;51.120;6.192;2023-09-19T09:49:47;17.50;99.90
18103;DHT22;9178;51.120;6.192;2023-09-19T09:52:20;17.60;99.90
18103;DHT22;9178;51.120;6.192;2023-09-19T09:55:00;17.70;99.90
18103;DHT22;9178;51.120;6.192;2023-09-19T09:57:31;17.80;99.90
18103;DHT22;9178;51.120;6.192;2023-09-19T10:00:00;17.90;99.90
18103;DHT22;9178;51.120;6.192;2023-09-19T10:02:42;18.00;99.90
18103;DHT22;9178;51.120;6.192;2023-09-19T10:05:13;18.00;99.90
18103;DHT22;9178;51.120;6.192;2023-09-19T10:07:47;17.90;99.90
18103;DHT22;9178;51.120;6.192;2023-09-19T10:10:32;17.90;99.90
18103;DHT22;9178;51.120;6.192;2023-09-19T10:13:11;17.80;99.90
18103;DHT22;9178;51.120;6.192;2023-09-19T10:15:42;17.80;99.90
18103;DHT22;9178;51.120;6.192;2023-09-19T10:18:12;17.80;99.90
18103;DHT22;9178;51.120;6.192;2023-09-19T10:20:45;17.80;99.90
18103;DHT22;9178;51.120;6.192;2023-09-19T10:23:13;17.80;99.90
18103;DHT22;9178;51.120;6.192;2023-09-19T10:25:43;17.90;99.90
18103;DHT22;9178;51.120;6.192;2023-09-19T10:28:14;18.00;99.90
18103;DHT22;9178;51.120;6.192;2023-09-19T10:30:43;18.00;99.90
18103;DHT22;9178;51.120;6.192;2023-09-19T10:33:11;18.10;99.90
18103;DHT22;9178;51.120;6.192;2023-09-19T10:35:43;18.10;99.90
18103;DHT22;9178;51.120;6.192;2023-09-19T10:38:11;18.10;99.90
18103;DHT22;9178;51.120;6.192;2023-09-19T10:40:39;18.10;99.90
18103;DHT22;9178;51.120;6.192;2023-09-19T10:43:13;18.00;99.90
18103;DHT22;9178;51.120;6.192;2023-09-19T10:45:45;18.00;99.90
18103;DHT22;9178;51.120;6.192;2023-09-19T10:48:15;18.10;99.90
18103;DHT22;9178;51.120;6.192;2023-09-19T10:50:50;18.10;99.90
18103;DHT22;9178;51.120;6.192;2023-09-19T10:53:18;18.20;99.90
18103;DHT22;9178;51.120;6.192;2023-09-19T10:55:50;18.40;99.90
18103;DHT22;9178;51.120;6.192;2023-09-19T10:58:34;18.50;99.90
18103;DHT22;9178;51.120;6.192;2023-09-19T11:01:04;18.50;99.90
18103;DHT22;9178;51.120;6.192;2023-09-19T11:03:32;18.50;99.90
18103;DHT22;9178;51.120;6.192;2023-09-19T11:06:04;18.50;99.90
18103;DHT22;9178;51.120;6.192;2023-09-19T11:08:31;18.50;99.90
18103;DHT22;9178;51.120;6.192;2023-09-19T11:11:39;18.50;99.90
18103;DHT22;9178;51.120;6.192;2023-09-19T11:14:29;18.60;99.90
18103;DHT22;9178;51.120;6.192;2023-09-19T11:20:31;18.70;99.90
18103;DHT22;9178;51.120;6.192;2023-09-19T11:23:21;18.70;99.90
18103;DHT22;9178;51.120;6.192;2023-09-19T11:25:58;18.70;99.90
18103;DHT22;9178;51.120;6.192;2023-09-19T11:28:29;18.70;99.90
18103;DHT22;9178;51.120;6.192;2023-09-19T11:30:58;18.60;99.90
18103;DHT22;9178;51.120;6.192;2023-09-19T11:33:28;18.60;99.90
18103;DHT22;9178;51.120;6.192;2023-09-19T11:36:03;18.70;99.90
18103;DHT22;9178;51.120;6.192;2023-09-19T11:39:01;18.80;99.90
18103;DHT22;9178;51.120;6.192;2023-09-19T11:41:38;18.90;99.90
18103;DHT22;9178;51.120;6.192;2023-09-19T11:44:33;19.00;99.90
18103;DHT22;9178;51.120;6.192;2023-09-19T11:47:08;19.20;99.90
18103;DHT22;9178;51.120;6.192;2023-09-19T11:49:40;19.40;99.90
18103;DHT22;9178;51.120;6.192;2023-09-19T11:52:08;19.50;99.90
18103;DHT22;9178;51.120;6.192;2023-09-19T11:54:36;19.60;99.90
18103;DHT22;9178;51.120;6.192;2023-09-19T11:57:07;19.60;99.90
18103;DHT22;9178;51.120;6.192;2023-09-19T11:59:38;19.70;99.90
18103;DHT22;9178;51.120;6.192;2023-09-19T12:02:07;19.90;99.90
18103;DHT22;9178;51.120;6.192;2023-09-19T12:04:38;20.10;99.90
18103;DHT22;9178;51.120;6.192;2023-09-19T12:07:08;20.20;99.90
18103;DHT22;9178;51.120;6.192;2023-09-19T12:09:41;20.00;99.90
18103;DHT22;9178;51.120;6.192;2023-09-19T12:12:10;19.90;99.90
18103;DHT22;9178;51.120;6.192;2023-09-19T12:14:39;19.80;99.90
18103;DHT22;9178;51.120;6.192;2023-09-19T12:17:10;19.70;99.90
18103;DHT22;9178;51.120;6.192;2023-09-19T12:19:38;19.70;99.90
18103;DHT22;9178;51.120;6.192;2023-09-19T12:22:06;19.60;99.90
18103;DHT22;9178;51.120;6.192;2023-09-19T12:24:38;19.50;99.90
18103;DHT22;9178;51.120;6.192;2023-09-19T12:27:10;19.50;99.90
18103;DHT22;9178;51.120;6.192;2023-09-19T12:29:45;19.50;99.90
18103;DHT22;9178;51.120;6.192;2023-09-19T12:32:16;19.40;99.90
18103;DHT22;9178;51.120;6.192;2023-09-19T12:34:53;19.40;99.90
18103;DHT22;9178;51.120;6.192;2023-09-19T12:37:20;19.40;99.90
18103;DHT22;9178;51.120;6.192;2023-09-19T12:39:53;19.40;99.90
18103;DHT22;9178;51.120;6.192;2023-09-19T12:42:22;19.40;99.90
18103;DHT22;9178;51.120;6.192;2023-09-19T12:44:51;19.50;99.90
18103;DHT22;9178;51.120;6.192;2023-09-19T12:47:23;19.70;99.90
18103;DHT22;9178;51.120;6.192;2023-09-19T12:50:09;19.90;99.90
18103;DHT22;9178;51.120;6.192;2023-09-19T12:52:41;19.90;99.90
18103;DHT22;9178;51.120;6.192;2023-09-19T12:55:19;19.90;99.90
18103;DHT22;9178;51.120;6.192;2023-09-19T12:57:56;19.90;99.90
18103;DHT22;9178;51.120;6.192;2023-09-19T13:00:32;19.90;99.90
18103;DHT22;9178;51.120;6.192;2023-09-19T13:03:18;19.90;99.90
18103;DHT22;9178;51.120;6.192;2023-09-19T13:05:51;19.90;99.90
18103;DHT22;9178;51.120;6.192;2023-09-19T13:08:24;19.90;99.90
18103;DHT22;9178;51.120;6.192;2023-09-19T13:11:07;19.90;99.90
18103;DHT22;9178;51.120;6.192;2023-09-19T13:13:41;19.80;99.90
18103;DHT22;9178;51.120;6.192;2023-09-19T13:16:09;19.70;99.90
18103;DHT22;9178;51.120;6.192;2023-09-19T13:18:46;19.60;99.90
18103;DHT22;9178;51.120;6.192;2023-09-19T13:21:16;19.50;99.90
18103;DHT22;9178;51.120;6.192;2023-09-19T13:23:53;19.50;99.90
18103;DHT22;9178;51.120;6.192;2023-09-19T13:26:26;19.40;99.90
18103;DHT22;9178;51.120;6.192;2023-09-19T13:28:53;19.40;99.90
18103;DHT22;9178;51.120;6.192;2023-09-19T13:31:20;19.40;99.90
18103;DHT22;9178;51.120;6.192;2023-09-19T13:33:49;19.40;99.90
18103;DHT22;9178;51.120;6.192;2023-09-19T13:36:17;19.40;99.90
18103;DHT22;9178;51.120;6.192;2023-09-19T13:38:44;19.40;99.90
18103;DHT22;9178;51.120;6.192;2023-09-19T13:41:14;19.30;99.90
18103;DHT22;9178;51.120;6.192;2023-09-19T13:43:41;19.30;99.90
18103;DHT22;9178;51.120;6.192;2023-09-19T13:46:13;19.30;99.90
18103;DHT22;9178;51.120;6.192;2023-09-19T13:48:42;19.40;99.90
18103;DHT22;9178;51.120;6.192;2023-09-19T13:51:10;19.40;99.90
18103;DHT22;9178;51.120;6.192;2023-09-19T13:53:37;19.50;99.90
18103;DHT22;9178;51.120;6.192;2023-09-19T13:56:07;19.50;99.90
18103;DHT22;9178;51.120;6.192;2023-09-19T13:58:35;19.60;99.90
18103;DHT22;9178;51.120;6.192;2023-09-19T14:01:02;19.60;99.90
18103;DHT22;9178;51.120;6.192;2023-09-19T14:03:29;19.60;99.90
18103;DHT22;9178;51.120;6.192;2023-09-19T14:05:56;19.60;99.90
18103;DHT22;9178;51.120;6.192;2023-09-19T14:08:24;19.50;99.90
18103;DHT22;9178;51.120;6.192;2023-09-19T14:10:51;19.50;99.90
18103;DHT22;9178;51.120;6.192;2023-09-19T14:13:19;19.40;99.90
18103;DHT22;9178;51.120;6.192;2023-09-19T14:15:46;19.30;99.90
18103;DHT22;9178;51.120;6.192;2023-09-19T14:18:13;19.30;99.90
18103;DHT22;9178;51.120;6.192;2023-09-19T14:20:44;19.30;99.90
18103;DHT22;9178;51.120;6.192;2023-09-19T14:23:11;19.30;99.90
18103;DHT22;9178;51.120;6.192;2023-09-19T14:25:39;19.20;99.90
18103;DHT22;9178;51.120;6.192;2023-09-19T14:28:07;19.20;99.90
18103;DHT22;9178;51.120;6.192;2023-09-19T14:30:34;19.10;99.90
18103;DHT22;9178;51.120;6.192;2023-09-19T14:33:03;19.10;99.90
18103;DHT22;9178;51.120;6.192;2023-09-19T14:35:30;19.00;99.90
18103;DHT22;9178;51.120;6.192;2023-09-19T14:37:57;19.00;99.90
18103;DHT22;9178;51.120;6.192;2023-09-19T14:40:24;19.00;99.90
18103;DHT22;9178;51.120;6.192;2023-09-19T14:42:54;19.00;99.90
18103;DHT22;9178;51.120;6.192;2023-09-19T14:45:21;18.90;99.90
18103;DHT22;9178;51.120;6.192;2023-09-19T14:47:50;18.90;99.90
18103;DHT22;9178;51.120;6.192;2023-09-19T14:50:18;18.90;99.90
18103;DHT22;9178;51.120;6.192;2023-09-19T14:52:54;18.90;99.90
18103;DHT22;9178;51.120;6.192;2023-09-19T14:55:24;18.90;99.90
18103;DHT22;9178;51.120;6.192;2023-09-19T14:57:54;18.90;99.90
18103;DHT22;9178;51.120;6.192;2023-09-19T15:00:24;18.80;99.90
18103;DHT22;9178;51.120;6.192;2023-09-19T15:02:53;18.80;99.90
18103;DHT22;9178;51.120;6.192;2023-09-19T15:05:21;18.80;99.90
18103;DHT22;9178;51.120;6.192;2023-09-19T15:07:49;18.80;99.90
18103;DHT22;9178;51.120;6.192;2023-09-19T15:10:16;18.80;99.90
18103;DHT22;9178;51.120;6.192;2023-09-19T15:12:44;18.80;99.90
18103;DHT22;9178;51.120;6.192;2023-09-19T15:15:12;18.80;99.90
18103;DHT22;9178;51.120;6.192;2023-09-19T15:17:39;18.80;99.90
18103;DHT22;9178;51.120;6.192;2023-09-19T15:20:09;18.80;99.90
18103;DHT22;9178;51.120;6.192;2023-09-19T15:22:39;18.80;99.90
18103;DHT22;9178;51.120;6.192;2023-09-19T15:25:06;18.80;99.90
18103;DHT22;9178;51.120;6.192;2023-09-19T15:27:36;18.80;99.90
18103;DHT22;9178;51.120;6.192;2023-09-19T15:30:04;18.80;99.90
18103;DHT22;9178;51.120;6.192;2023-09-19T15:32:33;18.90;99.90
18103;DHT22;9178;51.120;6.192;2023-09-19T15:35:00;18.90;99.90
18103;DHT22;9178;51.120;6.192;2023-09-19T15:37:27;18.90;99.90
18103;DHT22;9178;51.120;6.192;2023-09-19T15:39:55;18.90;99.90
18103;DHT22;9178;51.120;6.192;2023-09-19T15:42:21;19.00;99.90
18103;DHT22;9178;51.120;6.192;2023-09-19T15:44:48;19.10;99.90
18103;DHT22;9178;51.120;6.192;2023-09-19T15:47:17;19.10;99.90
18103;DHT22;9178;51.120;6.192;2023-09-19T15:49:47;19.00;99.90
18103;DHT22;9178;51.120;6.192;2023-09-19T15:52:16;18.90;99.90
18103;DHT22;9178;51.120;6.192;2023-09-19T15:54:44;18.90;99.90
18103;DHT22;9178;51.120;6.192;2023-09-19T15:57:11;18.90;99.90
18103;DHT22;9178;51.120;6.192;2023-09-19T15:59:39;18.90;99.90
18103;DHT22;9178;51.120;6.192;2023-09-19T16:02:06;18.80;99.90
18103;DHT22;9178;51.120;6.192;2023-09-19T16:04:33;18.80;99.90
18103;DHT22;9178;51.120;6.192;2023-09-19T16:07:02;18.80;99.90